sensor_id;sensor_type;location;lat;lon;timestamp;temperature;humidity
666;DHT22;315;48.738;9.126;2023-09-07T00:00:20;17.20;99.90
666;DHT22;315;48.738;9.126;2023-09-07T00:02:46;17.20;99.90
666;DHT22;315;48.738;9.126;2023-09-07T00:05:11;17.10;99.90
666;DHT22;315;48.738;9.126;2023-09-07T00:07:38;17.10;99.90
666;DHT22;315;48.738;9.126;2023-09-07T00:10:04;17.00;99.90
666;DHT22;315;48.738;9.126;2023-09-07T00:12:30;16.90;99.90
666;DHT22;315;48.738;9.126;2023-09-07T00:14:57;16.90;99.90
666;DHT22;315;48.738;9.126;2023-09-07T00:17:23;16.90;99.90
666;DHT22;315;48.738;9.126;2023-09-07T00:19:48;16.90;99.90
666;DHT22;315;48.738;9.126;2023-09-07T00:22:19;17.00;99.90
666;DHT22;315;48.738;9.126;2023-09-07T00:24:45;16.90;99.90
666;DHT22;315;48.738;9.126;2023-09-07T00:27:11;16.90;99.90
666;DHT22;315;48.738;9.126;2023-09-07T00:29:37;16.90;99.90
666;DHT22;315;48.738;9.126;2023-09-07T00:32:03;16.90;99.90
666;DHT22;315;48.738;9.126;2023-09-07T00:34:29;16.90;99.90
666;DHT22;315;48.738;9.126;2023-09-07T00:36:54;16.90;99.90
666;DHT22;315;48.738;9.126;2023-09-07T00:39:20;16.70;99.90
666;DHT22;315;48.738;9.126;2023-09-07T00:41:45;16.70;99.90
666;DHT22;315;48.738;9.126;2023-09-07T00:44:11;16.70;99.90
666;DHT22;315;48.738;9.126;2023-09-07T00:46:36;16.80;99.90
666;DHT22;315;48.738;9.126;2023-09-07T00:49:02;16.80;99.90
666;DHT22;315;48.738;9.126;2023-09-07T00:51:30;16.80;99.90
666;DHT22;315;48.738;9.126;2023-09-07T00:53:55;16.80;99.90
666;DHT22;315;48.738;9.126;2023-09-07T00:56:21;16.70;99.90
666;DHT22;315;48.738;9.126;2023-09-07T00:58:47;16.70;99.90
666;DHT22;315;48.738;9.126;2023-09-07T01:01:13;16.70;99.90
666;DHT22;315;48.738;9.126;2023-09-07T01:03:38;16.60;99.90
666;DHT22;315;48.738;9.126;2023-09-07T01:06:12;16.50;99.90
666;DHT22;315;48.738;9.126;2023-09-07T01:08:48;16.50;99.90
666;DHT22;315;48.738;9.126;2023-09-07T01:11:18;16.60;99.90
666;DHT22;315;48.738;9.126;2023-09-07T01:13:45;16.50;99.90
666;DHT22;315;48.738;9.126;2023-09-07T01:16:12;16.50;99.90
666;DHT22;315;48.738;9.126;2023-09-07T01:18:39;16.50;99.90
666;DHT22;315;48.738;9.126;2023-09-07T01:21:08;16.50;99.90
666;DHT22;315;48.738;9.126;2023-09-07T01:23:36;16.50;99.90
666;DHT22;315;48.738;9.126;2023-09-07T01:26:03;16.50;99.90
666;DHT22;315;48.738;9.126;2023-09-07T01:28:28;16.40;99.90
666;DHT22;315;48.738;9.126;2023-09-07T01:30:54;16.30;99.90
666;DHT22;315;48.738;9.126;2023-09-07T01:33:19;16.30;99.90
666;DHT22;315;48.738;9.126;2023-09-07T01:35:45;16.30;99.90
666;DHT22;315;48.738;9.126;2023-09-07T01:38:11;16.20;99.90
666;DHT22;315;48.738;9.126;2023-09-07T01:40:37;16.20;99.90
666;DHT22;315;48.738;9.126;2023-09-07T01:43:02;16.20;99.90
666;DHT22;315;48.738;9.126;2023-09-07T01:45:28;16.20;99.90
666;DHT22;315;48.738;9.126;2023-09-07T01:47:53;16.10;99.90
666;DHT22;315;48.738;9.126;2023-09-07T01:50:19;16.10;99.90
666;DHT22;315;48.738;9.126;2023-09-07T01:52:48;16.10;99.90
666;DHT22;315;48.738;9.126;2023-09-07T01:55:14;16.10;99.90
666;DHT22;315;48.738;9.126;2023-09-07T01:57:39;16.00;99.90
666;DHT22;315;48.738;9.126;2023-09-07T02:00:05;16.00;99.90
666;DHT22;315;48.738;9.126;2023-09-07T02:02:31;15.90;99.90
666;DHT22;315;48.738;9.126;2023-09-07T02:04:57;15.80;99.90
666;DHT22;315;48.738;9.126;2023-09-07T02:07:22;15.70;99.90
666;DHT22;315;48.738;9.126;2023-09-07T02:09:48;15.70;99.90
666;DHT22;315;48.738;9.126;2023-09-07T02:12:13;15.70;99.90
666;DHT22;315;48.738;9.126;2023-09-07T02:14:39;15.70;99.90
666;DHT22;315;48.738;9.126;2023-09-07T02:17:04;15.70;99.90
666;DHT22;315;48.738;9.126;2023-09-07T02:19:30;15.70;99.90
666;DHT22;315;48.738;9.126;2023-09-07T02:21:55;15.70;99.90
666;DHT22;315;48.738;9.126;2023-09-07T02:24:21;15.70;99.90
666;DHT22;315;48.738;9.126;2023-09-07T02:26:46;15.70;99.90
666;DHT22;315;48.738;9.126;2023-09-07T02:29:12;15.70;99.90
666;DHT22;315;48.738;9.126;2023-09-07T02:31:41;15.70;99.90
666;DHT22;315;48.738;9.126;2023-09-07T02:34:07;15.70;99.90
666;DHT22;315;48.738;9.126;2023-09-07T02:36:34;15.70;99.90
666;DHT22;315;48.738;9.126;2023-09-07T02:39:02;15.70;99.90
666;DHT22;315;48.738;9.126;2023-09-07T02:41:31;15.70;99.90
666;DHT22;315;48.738;9.126;2023-09-07T02:43:56;15.70;99.90
666;DHT22;315;48.738;9.126;2023-09-07T02:46:22;15.60;99.90
666;DHT22;315;48.738;9.126;2023-09-07T02:48:47;15.60;99.90
666;DHT22;315;48.738;9.126;2023-09-07T02:51:13;15.50;99.90
666;DHT22;315;48.738;9.126;2023-09-07T02:53:39;15.40;99.90
666;DHT22;315;48.738;9.126;2023-09-07T02:56:04;15.40;99.90
666;DHT22;315;48.738;9.126;2023-09-07T02:58:30;15.40;99.90
666;DHT22;315;48.738;9.126;2023-09-07T03:00:56;15.40;99.90
666;DHT22;315;48.738;9.126;2023-09-07T03:03:21;15.40;99.90
666;DHT22;315;48.738;9.126;2023-09-07T03:05:47;15.40;99.90
666;DHT22;315;48.738;9.126;2023-09-07T03:08:13;15.40;99.90
666;DHT22;315;48.738;9.126;2023-09-07T03:10:39;15.30;99.90
666;DHT22;315;48.738;9.126;2023-09-07T03:13:06;15.40;99.90
666;DHT22;315;48.738;9.126;2023-09-07T03:15:32;15.40;99.90
666;DHT22;315;48.738;9.126;2023-09-07T03:17:57;15.40;99.90
666;DHT22;315;48.738;9.126;2023-09-07T03:20:23;15.30;99.90
666;DHT22;315;48.738;9.126;2023-09-07T03:22:48;15.30;99.90
666;DHT22;315;48.738;9.126;2023-09-07T03:25:14;15.20;99.90
666;DHT22;315;48.738;9.126;2023-09-07T03:27:40;15.20;99.90
666;DHT22;315;48.738;9.126;2023-09-07T03:30:06;15.10;99.90
666;DHT22;315;48.738;9.126;2023-09-07T03:32:33;15.00;99.90
666;DHT22;315;48.738;9.126;2023-09-07T03:34:59;15.10;99.90
666;DHT22;315;48.738;9.126;2023-09-07T03:37:29;15.00;99.90
666;DHT22;315;48.738;9.126;2023-09-07T03:39:58;15.00;99.90
666;DHT22;315;48.738;9.126;2023-09-07T03:42:23;15.00;99.90
666;DHT22;315;48.738;9.126;2023-09-07T03:44:49;15.10;99.90
666;DHT22;315;48.738;9.126;2023-09-07T03:47:14;15.10;99.90
666;DHT22;315;48.738;9.126;2023-09-07T03:53:03;15.10;99.90
666;DHT22;315;48.738;9.126;2023-09-07T03:55:28;15.00;99.90
666;DHT22;315;48.738;9.126;2023-09-07T03:57:54;14.90;99.90
666;DHT22;315;48.738;9.126;2023-09-07T04:00:19;14.90;99.90
666;DHT22;315;48.738;9.126;2023-09-07T04:02:45;14.90;99.90
666;DHT22;315;48.738;9.126;2023-09-07T04:05:11;14.90;99.90
666;DHT22;315;48.738;9.126;2023-09-07T04:07:37;14.90;99.90
666;DHT22;315;48.738;9.126;2023-09-07T04:10:04;14.90;99.90
666;DHT22;315;48.738;9.126;2023-09-07T04:12:30;14.80;99.90
666;DHT22;315;48.738;9.126;2023-09-07T04:14:55;14.80;99.90
666;DHT22;315;48.738;9.126;2023-09-07T04:17:21;14.70;99.90
666;DHT22;315;48.738;9.126;2023-09-07T04:19:46;14.60;99.90
666;DHT22;315;48.738;9.126;2023-09-07T04:22:12;14.60;99.90
666;DHT22;315;48.738;9.126;2023-09-07T04:24:37;14.60;99.90
666;DHT22;315;48.738;9.126;2023-09-07T04:27:04;14.60;99.90
666;DHT22;315;48.738;9.126;2023-09-07T04:29:29;14.60;99.90
666;DHT22;315;48.738;9.126;2023-09-07T04:31:55;14.60;99.90
666;DHT22;315;48.738;9.126;2023-09-07T04:34:21;14.60;99.90
666;DHT22;315;48.738;9.126;2023-09-07T04:36:47;14.60;99.90
666;DHT22;315;48.738;9.126;2023-09-07T04:39:13;14.70;99.90
666;DHT22;315;48.738;9.126;2023-09-07T04:41:40;14.60;99.90
666;DHT22;315;48.738;9.126;2023-09-07T04:44:05;14.60;99.90
666;DHT22;315;48.738;9.126;2023-09-07T04:46:31;14.60;99.90
666;DHT22;315;48.738;9.126;2023-09-07T04:48:56;14.60;99.90
666;DHT22;315;48.738;9.126;2023-09-07T04:51:22;14.60;99.90
666;DHT22;315;48.738;9.126;2023-09-07T04:53:49;14.60;99.90
666;DHT22;315;48.738;9.126;2023-09-07T04:56:14;14.60;99.90
666;DHT22;315;48.738;9.126;2023-09-07T04:58:41;14.60;99.90
666;DHT22;315;48.738;9.126;2023-09-07T05:01:11;14.60;99.90
666;DHT22;315;48.738;9.126;2023-09-07T05:03:37;14.70;99.90
666;DHT22;315;48.738;9.126;2023-09-07T05:06:03;14.60;99.90
666;DHT22;315;48.738;9.126;2023-09-07T05:08:29;14.60;99.90
666;DHT22;315;48.738;9.126;2023-09-07T05:10:59;14.60;99.90
666;DHT22;315;48.738;9.126;2023-09-07T05:13:26;14.60;99.90
666;DHT22;315;48.738;9.126;2023-09-07T05:15:53;14.70;99.90
666;DHT22;315;48.738;9.126;2023-09-07T05:18:19;14.70;99.90
666;DHT22;315;48.738;9.126;2023-09-07T05:20:45;14.90;99.90
666;DHT22;315;48.738;9.126;2023-09-07T05:23:18;15.00;99.90
666;DHT22;315;48.738;9.126;2023-09-07T05:25:53;15.30;99.90
666;DHT22;315;48.738;9.126;2023-09-07T05:28:19;15.40;99.90
666;DHT22;315;48.738;9.126;2023-09-07T05:30:45;15.50;99.90
666;DHT22;315;48.738;9.126;2023-09-07T05:33:13;15.70;99.90
666;DHT22;315;48.738;9.126;2023-09-07T05:35:39;15.80;99.90
666;DHT22;315;48.738;9.126;2023-09-07T05:38:05;16.00;99.90
666;DHT22;315;48.738;9.126;2023-09-07T05:40:40;16.00;99.90
666;DHT22;315;48.738;9.126;2023-09-07T05:43:06;16.20;99.90
666;DHT22;315;48.738;9.126;2023-09-07T05:45:35;16.30;99.90
666;DHT22;315;48.738;9.126;2023-09-07T05:48:05;16.50;99.90
666;DHT22;315;48.738;9.126;2023-09-07T05:50:32;16.70;99.90
666;DHT22;315;48.738;9.126;2023-09-07T05:52:58;16.80;99.90
666;DHT22;315;48.738;9.126;2023-09-07T05:55:24;17.00;99.90
666;DHT22;315;48.738;9.126;2023-09-07T05:57:49;17.10;99.90
666;DHT22;315;48.738;9.126;2023-09-07T06:00:15;17.20;99.90
666;DHT22;315;48.738;9.126;2023-09-07T06:02:43;17.30;99.90
666;DHT22;315;48.738;9.126;2023-09-07T06:05:08;17.50;99.90
666;DHT22;315;48.738;9.126;2023-09-07T06:07:35;17.70;99.90
666;DHT22;315;48.738;9.126;2023-09-07T06:10:01;17.80;99.90
666;DHT22;315;48.738;9.126;2023-09-07T06:12:26;18.00;99.90
666;DHT22;315;48.738;9.126;2023-09-07T06:14:52;18.20;99.90
666;DHT22;315;48.738;9.126;2023-09-07T06:17:17;18.50;99.90
666;DHT22;315;48.738;9.126;2023-09-07T06:19:44;18.70;99.90
666;DHT22;315;48.738;9.126;2023-09-07T06:22:10;18.60;99.90
666;DHT22;315;48.738;9.126;2023-09-07T06:24:35;18.60;99.90
666;DHT22;315;48.738;9.126;2023-09-07T06:27:01;18.70;99.90
666;DHT22;315;48.738;9.126;2023-09-07T06:29:27;18.70;99.90
666;DHT22;315;48.738;9.126;2023-09-07T06:31:52;18.90;99.90
666;DHT22;315;48.738;9.126;2023-09-07T06:34:18;19.20;99.90
666;DHT22;315;48.738;9.126;2023-09-07T06:36:43;19.60;99.90
666;DHT22;315;48.738;9.126;2023-09-07T06:39:09;19.90;99.90
666;DHT22;315;48.738;9.126;2023-09-07T06:41:34;20.20;99.90
666;DHT22;315;48.738;9.126;2023-09-07T06:44:00;20.40;99.90
666;DHT22;315;48.738;9.126;2023-09-07T06:46:25;20.60;99.90
666;DHT22;315;48.738;9.126;2023-09-07T06:48:52;20.60;99.90
666;DHT22;315;48.738;9.126;2023-09-07T06:51:17;20.70;99.90
666;DHT22;315;48.738;9.126;2023-09-07T06:53:42;20.60;99.90
666;DHT22;315;48.738;9.126;2023-09-07T06:56:08;20.80;99.90
666;DHT22;315;48.738;9.126;2023-09-07T06:58:34;20.90;99.90
666;DHT22;315;48.738;9.126;2023-09-07T07:01:00;21.10;99.90
666;DHT22;315;48.738;9.126;2023-09-07T07:03:27;21.40;99.90
666;DHT22;315;48.738;9.126;2023-09-07T07:05:53;21.60;99.90
666;DHT22;315;48.738;9.126;2023-09-07T07:08:19;21.90;99.90
666;DHT22;315;48.738;9.126;2023-09-07T07:10:45;21.80;99.90
666;DHT22;315;48.738;9.126;2023-09-07T07:13:11;21.80;99.90
666;DHT22;315;48.738;9.126;2023-09-07T07:15:36;21.60;99.90
666;DHT22;315;48.738;9.126;2023-09-07T07:18:02;21.70;99.90
666;DHT22;315;48.738;9.126;2023-09-07T07:20:43;21.80;99.90
666;DHT22;315;48.738;9.126;2023-09-07T07:23:11;22.00;99.90
666;DHT22;315;48.738;9.126;2023-09-07T07:25:38;22.20;99.90
666;DHT22;315;48.738;9.126;2023-09-07T07:28:04;22.40;99.90
666;DHT22;315;48.738;9.126;2023-09-07T07:30:35;22.50;99.90
666;DHT22;315;48.738;9.126;2023-09-07T07:33:02;22.80;99.90
666;DHT22;315;48.738;9.126;2023-09-07T07:35:32;23.10;99.90
666;DHT22;315;48.738;9.126;2023-09-07T07:37:58;23.30;99.90
666;DHT22;315;48.738;9.126;2023-09-07T07:40:24;23.40;99.90
666;DHT22;315;48.738;9.126;2023-09-07T07:42:51;23.60;99.90
666;DHT22;315;48.738;9.126;2023-09-07T07:45:17;23.70;99.90
666;DHT22;315;48.738;9.126;2023-09-07T07:47:45;23.70;99.90
666;DHT22;315;48.738;9.126;2023-09-07T07:50:11;24.10;99.90
666;DHT22;315;48.738;9.126;2023-09-07T07:52:36;23.60;99.90
666;DHT22;315;48.738;9.126;2023-09-07T07:55:02;23.30;99.90
666;DHT22;315;48.738;9.126;2023-09-07T07:57:28;23.40;99.90
666;DHT22;315;48.738;9.126;2023-09-07T07:59:55;23.70;99.90
666;DHT22;315;48.738;9.126;2023-09-07T08:02:20;24.20;99.90
666;DHT22;315;48.738;9.126;2023-09-07T08:04:46;24.60;99.90
666;DHT22;315;48.738;9.126;2023-09-07T08:07:11;24.70;99.90
666;DHT22;315;48.738;9.126;2023-09-07T08:09:37;24.80;99.90
666;DHT22;315;48.738;9.126;2023-09-07T08:12:03;25.00;99.90
666;DHT22;315;48.738;9.126;2023-09-07T08:14:29;25.10;99.90
666;DHT22;315;48.738;9.126;2023-09-07T08:16:56;25.30;99.90
666;DHT22;315;48.738;9.126;2023-09-07T08:19:22;25.70;99.90
666;DHT22;315;48.738;9.126;2023-09-07T08:21:47;26.10;99.90
666;DHT22;315;48.738;9.126;2023-09-07T08:24:13;26.30;99.90
666;DHT22;315;48.738;9.126;2023-09-07T08:26:39;26.30;99.90
666;DHT22;315;48.738;9.126;2023-09-07T08:29:05;26.50;99.90
666;DHT22;315;48.738;9.126;2023-09-07T08:31:32;26.70;99.90
666;DHT22;315;48.738;9.126;2023-09-07T08:34:00;26.80;99.90
666;DHT22;315;48.738;9.126;2023-09-07T08:36:25;26.90;99.90
666;DHT22;315;48.738;9.126;2023-09-07T08:38:53;27.00;99.90
666;DHT22;315;48.738;9.126;2023-09-07T08:41:20;27.20;99.90
666;DHT22;315;48.738;9.126;2023-09-07T08:43:46;27.20;99.90
666;DHT22;315;48.738;9.126;2023-09-07T08:46:18;27.50;99.90
666;DHT22;315;48.738;9.126;2023-09-07T08:48:46;28.00;99.90
666;DHT22;315;48.738;9.126;2023-09-07T08:51:14;28.50;98.90
666;DHT22;315;48.738;9.126;2023-09-07T08:53:40;28.70;97.80
666;DHT22;315;48.738;9.126;2023-09-07T08:56:07;29.10;96.50
666;DHT22;315;48.738;9.126;2023-09-07T08:58:36;29.50;95.30
666;DHT22;315;48.738;9.126;2023-09-07T09:01:01;29.20;94.90
666;DHT22;315;48.738;9.126;2023-09-07T09:03:27;29.30;94.90
666;DHT22;315;48.738;9.126;2023-09-07T09:05:54;30.10;93.50
666;DHT22;315;48.738;9.126;2023-09-07T09:08:20;31.20;91.60
666;DHT22;315;48.738;9.126;2023-09-07T09:10:58;31.70;90.20
666;DHT22;315;48.738;9.126;2023-09-07T09:13:30;31.80;86.90
666;DHT22;315;48.738;9.126;2023-09-07T09:15:59;32.50;83.70
666;DHT22;315;48.738;9.126;2023-09-07T09:18:25;32.80;81.00
666;DHT22;315;48.738;9.126;2023-09-07T09:20:52;32.80;79.20
666;DHT22;315;48.738;9.126;2023-09-07T09:23:18;33.20;77.40
666;DHT22;315;48.738;9.126;2023-09-07T09:25:44;32.40;77.10
666;DHT22;315;48.738;9.126;2023-09-07T09:28:10;32.60;77.10
666;DHT22;315;48.738;9.126;2023-09-07T09:30:36;33.30;75.20
666;DHT22;315;48.738;9.126;2023-09-07T09:33:02;34.40;72.30
666;DHT22;315;48.738;9.126;2023-09-07T09:35:31;35.80;69.50
666;DHT22;315;48.738;9.126;2023-09-07T09:38:00;36.00;65.50
666;DHT22;315;48.738;9.126;2023-09-07T09:40:33;36.20;63.70
666;DHT22;315;48.738;9.126;2023-09-07T09:43:01;36.10;62.30
666;DHT22;315;48.738;9.126;2023-09-07T09:45:27;36.10;61.80
666;DHT22;315;48.738;9.126;2023-09-07T09:47:54;36.80;60.00
666;DHT22;315;48.738;9.126;2023-09-07T09:50:25;37.00;58.90
666;DHT22;315;48.738;9.126;2023-09-07T09:52:52;38.10;57.60
666;DHT22;315;48.738;9.126;2023-09-07T09:55:19;38.90;55.60
666;DHT22;315;48.738;9.126;2023-09-07T09:57:45;38.70;54.50
666;DHT22;315;48.738;9.126;2023-09-07T10:00:11;38.70;53.90
666;DHT22;315;48.738;9.126;2023-09-07T10:02:54;38.90;53.30
666;DHT22;315;48.738;9.126;2023-09-07T10:05:21;39.70;52.30
666;DHT22;315;48.738;9.126;2023-09-07T10:07:50;39.90;51.00
666;DHT22;315;48.738;9.126;2023-09-07T10:10:18;40.00;50.90
666;DHT22;315;48.738;9.126;2023-09-07T10:12:45;40.70;50.00
666;DHT22;315;48.738;9.126;2023-09-07T10:15:26;40.80;48.70
666;DHT22;315;48.738;9.126;2023-09-07T10:18:06;38.60;49.10
666;DHT22;315;48.738;9.126;2023-09-07T10:23:16;38.30;50.20
666;DHT22;315;48.738;9.126;2023-09-07T10:25:42;38.60;49.90
666;DHT22;315;48.738;9.126;2023-09-07T10:28:24;39.30;49.10
666;DHT22;315;48.738;9.126;2023-09-07T10:31:15;39.60;48.40
666;DHT22;315;48.738;9.126;2023-09-07T10:33:41;39.00;49.00
666;DHT22;315;48.738;9.126;2023-09-07T10:36:07;39.10;48.80
666;DHT22;315;48.738;9.126;2023-09-07T10:38:33;39.10;49.10
666;DHT22;315;48.738;9.126;2023-09-07T10:41:01;40.50;47.60
666;DHT22;315;48.738;9.126;2023-09-07T10:43:28;40.20;47.40
666;DHT22;315;48.738;9.126;2023-09-07T10:45:55;40.80;47.20
666;DHT22;315;48.738;9.126;2023-09-07T10:48:21;41.40;46.40
666;DHT22;315;48.738;9.126;2023-09-07T10:50:47;41.50;46.00
666;DHT22;315;48.738;9.126;2023-09-07T10:53:13;41.40;45.50
666;DHT22;315;48.738;9.126;2023-09-07T10:55:40;39.60;46.70
666;DHT22;315;48.738;9.126;2023-09-07T10:58:06;40.60;46.30
666;DHT22;315;48.738;9.126;2023-09-07T11:00:32;40.50;46.00
666;DHT22;315;48.738;9.126;2023-09-07T11:02:57;40.50;46.10
666;DHT22;315;48.738;9.126;2023-09-07T11:05:23;41.10;45.40
666;DHT22;315;48.738;9.126;2023-09-07T11:07:49;41.40;45.00
666;DHT22;315;48.738;9.126;2023-09-07T11:10:15;41.20;44.70
666;DHT22;315;48.738;9.126;2023-09-07T11:12:40;41.20;44.40
666;DHT22;315;48.738;9.126;2023-09-07T11:15:09;41.40;45.10
666;DHT22;315;48.738;9.126;2023-09-07T11:17:37;41.30;44.40
666;DHT22;315;48.738;9.126;2023-09-07T11:20:06;39.70;45.40
666;DHT22;315;48.738;9.126;2023-09-07T11:22:32;40.50;45.00
666;DHT22;315;48.738;9.126;2023-09-07T11:25:01;41.10;44.30
666;DHT22;315;48.738;9.126;2023-09-07T11:27:31;42.10;43.70
666;DHT22;315;48.738;9.126;2023-09-07T11:29:56;41.90;43.50
666;DHT22;315;48.738;9.126;2023-09-07T11:32:23;42.60;42.70
666;DHT22;315;48.738;9.126;2023-09-07T11:34:50;43.00;42.30
666;DHT22;315;48.738;9.126;2023-09-07T11:37:17;42.30;41.80
666;DHT22;315;48.738;9.126;2023-09-07T11:39:43;40.50;42.60
666;DHT22;315;48.738;9.126;2023-09-07T11:42:09;40.30;43.70
666;DHT22;315;48.738;9.126;2023-09-07T11:44:35;41.30;42.60
666;DHT22;315;48.738;9.126;2023-09-07T11:47:01;41.90;42.50
666;DHT22;315;48.738;9.126;2023-09-07T11:49:26;42.80;42.00
666;DHT22;315;48.738;9.126;2023-09-07T11:51:52;42.70;41.20
666;DHT22;315;48.738;9.126;2023-09-07T11:54:17;42.30;41.20
666;DHT22;315;48.738;9.126;2023-09-07T11:56:43;42.60;41.10
666;DHT22;315;48.738;9.126;2023-09-07T11:59:10;43.90;40.40
666;DHT22;315;48.738;9.126;2023-09-07T12:01:36;44.70;39.60
666;DHT22;315;48.738;9.126;2023-09-07T12:04:02;44.30;39.40
666;DHT22;315;48.738;9.126;2023-09-07T12:06:29;44.90;39.10
666;DHT22;315;48.738;9.126;2023-09-07T12:11:24;45.50;38.50
666;DHT22;315;48.738;9.126;2023-09-07T12:13:50;44.60;38.80
666;DHT22;315;48.738;9.126;2023-09-07T12:16:15;44.80;38.70
666;DHT22;315;48.738;9.126;2023-09-07T12:18:41;44.90;38.40
666;DHT22;315;48.738;9.126;2023-09-07T12:21:06;45.70;37.80
666;DHT22;315;48.738;9.126;2023-09-07T12:23:33;45.80;37.60
666;DHT22;315;48.738;9.126;2023-09-07T12:26:00;46.00;37.00
666;DHT22;315;48.738;9.126;2023-09-07T12:28:26;45.40;37.10
666;DHT22;315;48.738;9.126;2023-09-07T12:30:51;45.20;37.50
666;DHT22;315;48.738;9.126;2023-09-07T12:33:17;45.20;37.20
666;DHT22;315;48.738;9.126;2023-09-07T12:35:42;45.90;37.00
666;DHT22;315;48.738;9.126;2023-09-07T12:38:08;46.50;36.30
666;DHT22;315;48.738;9.126;2023-09-07T12:40:35;46.30;36.20
666;DHT22;315;48.738;9.126;2023-09-07T12:43:02;46.90;36.00
666;DHT22;315;48.738;9.126;2023-09-07T12:45:27;47.60;35.10
666;DHT22;315;48.738;9.126;2023-09-07T12:47:53;46.70;35.60
666;DHT22;315;48.738;9.126;2023-09-07T12:50:18;46.70;35.50
666;DHT22;315;48.738;9.126;2023-09-07T12:52:44;46.80;35.10
666;DHT22;315;48.738;9.126;2023-09-07T12:55:09;46.70;34.90
666;DHT22;315;48.738;9.126;2023-09-07T12:57:35;46.70;35.00
666;DHT22;315;48.738;9.126;2023-09-07T13:00:06;46.80;34.60
666;DHT22;315;48.738;9.126;2023-09-07T13:02:32;46.90;34.60
666;DHT22;315;48.738;9.126;2023-09-07T13:04:58;47.20;34.70
666;DHT22;315;48.738;9.126;2023-09-07T13:07:23;47.40;33.70
666;DHT22;315;48.738;9.126;2023-09-07T13:09:49;47.80;33.60
666;DHT22;315;48.738;9.126;2023-09-07T13:12:15;47.60;33.20
666;DHT22;315;48.738;9.126;2023-09-07T13:14:40;46.90;33.50
666;DHT22;315;48.738;9.126;2023-09-07T13:17:09;46.70;33.60
666;DHT22;315;48.738;9.126;2023-09-07T13:19:35;46.90;33.50
666;DHT22;315;48.738;9.126;2023-09-07T13:22:00;47.20;33.10
666;DHT22;315;48.738;9.126;2023-09-07T13:24:26;47.20;32.90
666;DHT22;315;48.738;9.126;2023-09-07T13:26:51;47.70;32.70
666;DHT22;315;48.738;9.126;2023-09-07T13:29:17;47.60;32.80
666;DHT22;315;48.738;9.126;2023-09-07T13:31:42;47.70;32.40
666;DHT22;315;48.738;9.126;2023-09-07T13:34:08;46.10;33.30
666;DHT22;315;48.738;9.126;2023-09-07T13:36:33;46.00;32.90
666;DHT22;315;48.738;9.126;2023-09-07T13:38:59;45.90;33.40
666;DHT22;315;48.738;9.126;2023-09-07T13:41:24;45.40;33.30
666;DHT22;315;48.738;9.126;2023-09-07T13:43:50;43.80;34.60
666;DHT22;315;48.738;9.126;2023-09-07T13:46:16;41.70;35.80
666;DHT22;315;48.738;9.126;2023-09-07T13:48:41;40.10;37.20
666;DHT22;315;48.738;9.126;2023-09-07T13:51:07;39.20;38.40
666;DHT22;315;48.738;9.126;2023-09-07T13:53:32;37.80;39.30
666;DHT22;315;48.738;9.126;2023-09-07T13:55:58;36.90;40.60
666;DHT22;315;48.738;9.126;2023-09-07T13:58:23;36.20;41.60
666;DHT22;315;48.738;9.126;2023-09-07T14:00:49;36.10;41.60
666;DHT22;315;48.738;9.126;2023-09-07T14:03:16;35.40;42.00
666;DHT22;315;48.738;9.126;2023-09-07T14:05:41;34.20;43.40
666;DHT22;315;48.738;9.126;2023-09-07T14:08:07;33.70;44.50
666;DHT22;315;48.738;9.126;2023-09-07T14:10:33;33.00;45.30
666;DHT22;315;48.738;9.126;2023-09-07T14:12:58;32.40;46.00
666;DHT22;315;48.738;9.126;2023-09-07T14:15:24;31.80;46.70
666;DHT22;315;48.738;9.126;2023-09-07T14:17:50;31.40;47.30
666;DHT22;315;48.738;9.126;2023-09-07T14:20:15;31.30;47.40
666;DHT22;315;48.738;9.126;2023-09-07T14:22:42;31.30;48.00
666;DHT22;315;48.738;9.126;2023-09-07T14:25:08;31.30;48.30
666;DHT22;315;48.738;9.126;2023-09-07T14:27:34;31.10;48.70
666;DHT22;315;48.738;9.126;2023-09-07T14:29:59;30.90;49.30
666;DHT22;315;48.738;9.126;2023-09-07T14:32:25;30.90;49.30
666;DHT22;315;48.738;9.126;2023-09-07T14:34:50;30.60;49.40
666;DHT22;315;48.738;9.126;2023-09-07T14:37:16;30.40;49.90
666;DHT22;315;48.738;9.126;2023-09-07T14:39:41;30.10;50.10
666;DHT22;315;48.738;9.126;2023-09-07T14:42:12;30.00;50.70
666;DHT22;315;48.738;9.126;2023-09-07T14:44:41;29.90;50.90
666;DHT22;315;48.738;9.126;2023-09-07T14:47:07;29.80;51.30
666;DHT22;315;48.738;9.126;2023-09-07T14:49:33;29.80;51.70
666;DHT22;315;48.738;9.126;2023-09-07T14:51:58;29.70;52.40
666;DHT22;315;48.738;9.126;2023-09-07T14:54:24;29.70;53.10
666;DHT22;315;48.738;9.126;2023-09-07T14:56:50;29.70;52.40
666;DHT22;315;48.738;9.126;2023-09-07T14:59:16;29.60;52.80
666;DHT22;315;48.738;9.126;2023-09-07T15:01:41;29.50;53.40
666;DHT22;315;48.738;9.126;2023-09-07T15:04:07;29.40;53.90
666;DHT22;315;48.738;9.126;2023-09-07T15:06:32;29.40;54.50
666;DHT22;315;48.738;9.126;2023-09-07T15:08:59;29.40;54.30
666;DHT22;315;48.738;9.126;2023-09-07T15:11:24;29.40;54.40
666;DHT22;315;48.738;9.126;2023-09-07T15:13:50;29.50;54.80
666;DHT22;315;48.738;9.126;2023-09-07T15:16:18;29.50;54.70
666;DHT22;315;48.738;9.126;2023-09-07T15:18:43;29.30;54.60
666;DHT22;315;48.738;9.126;2023-09-07T15:21:08;29.20;55.10
666;DHT22;315;48.738;9.126;2023-09-07T15:23:34;29.10;56.10
666;DHT22;315;48.738;9.126;2023-09-07T15:26:00;29.00;56.20
666;DHT22;315;48.738;9.126;2023-09-07T15:28:25;28.90;56.00
666;DHT22;315;48.738;9.126;2023-09-07T15:30:51;28.90;56.80
666;DHT22;315;48.738;9.126;2023-09-07T15:33:16;28.80;57.60
666;DHT22;315;48.738;9.126;2023-09-07T15:35:42;28.80;57.90
666;DHT22;315;48.738;9.126;2023-09-07T15:38:07;28.70;58.00
666;DHT22;315;48.738;9.126;2023-09-07T15:40:33;28.70;58.30
666;DHT22;315;48.738;9.126;2023-09-07T15:42:58;28.60;58.60
666;DHT22;315;48.738;9.126;2023-09-07T15:45:24;28.50;58.90
666;DHT22;315;48.738;9.126;2023-09-07T15:47:49;28.40;59.30
666;DHT22;315;48.738;9.126;2023-09-07T15:50:15;28.20;59.70
666;DHT22;315;48.738;9.126;2023-09-07T15:52:45;28.10;60.60
666;DHT22;315;48.738;9.126;2023-09-07T15:55:12;28.00;61.70
666;DHT22;315;48.738;9.126;2023-09-07T15:57:37;28.00;61.90
666;DHT22;315;48.738;9.126;2023-09-07T16:00:03;27.90;62.30
666;DHT22;315;48.738;9.126;2023-09-07T16:02:30;27.90;63.70
666;DHT22;315;48.738;9.126;2023-09-07T16:04:56;27.90;64.60
666;DHT22;315;48.738;9.126;2023-09-07T16:07:21;27.80;64.00
666;DHT22;315;48.738;9.126;2023-09-07T16:09:47;27.80;63.90
666;DHT22;315;48.738;9.126;2023-09-07T16:12:13;27.80;62.80
666;DHT22;315;48.738;9.126;2023-09-07T16:14:38;27.70;62.80
666;DHT22;315;48.738;9.126;2023-09-07T16:17:04;27.50;64.30
666;DHT22;315;48.738;9.126;2023-09-07T16:19:29;27.40;65.10
666;DHT22;315;48.738;9.126;2023-09-07T16:21:55;27.40;65.90
666;DHT22;315;48.738;9.126;2023-09-07T16:24:20;27.40;69.10
666;DHT22;315;48.738;9.126;2023-09-07T16:26:46;27.20;68.70
666;DHT22;315;48.738;9.126;2023-09-07T16:29:11;27.20;68.80
666;DHT22;315;48.738;9.126;2023-09-07T16:31:37;27.20;68.40
666;DHT22;315;48.738;9.126;2023-09-07T16:34:03;27.20;68.50
666;DHT22;315;48.738;9.126;2023-09-07T16:36:29;27.20;70.10